AWE1252 KBUR-KOAK
Flight info
| Callsign | AWE1252 |
|---|---|
| Flight time | 0h 50m |
| Altitude | 34000 |
| Route | OROSZ2 COREZ RGOOD EMZOH4 |
| Aircraft | A319/M-SDE3FGHIRWY/LB1 |
Departure
| Time | 2026-04-29 23:15 |
|---|---|
| Airport | Hollywood Burbank/Bob Hope Airport (KBUR) |
Arrival
| Time | 2026-04-30 00:05 |
|---|---|
| Airport | San Francisco Bay Oakland International Airport (KOAK) |
| Time | Latitude | Longitude | Altitude | Speed | Heading |
|---|---|---|---|---|---|
| 2026-04-29 22:52 | 34.19674 | -118.35196 | 696 ft | 0 kts | 182° |
| 2026-04-29 23:06 | 34.19680 | -118.35196 | 696 ft | 2 kts | 184° |
| 2026-04-29 23:06 | 34.19699 | -118.35193 | 689 ft | 3 kts | 202° |
| 2026-04-29 23:07 | 34.19715 | -118.35181 | 690 ft | 3 kts | 248° |
| 2026-04-29 23:07 | 34.19718 | -118.35170 | 689 ft | 0 kts | 271° |
| 2026-04-29 23:09 | 34.19718 | -118.35192 | 692 ft | 9 kts | 271° |
| 2026-04-29 23:09 | 34.19720 | -118.35331 | 696 ft | 18 kts | 270° |
| 2026-04-29 23:10 | 34.19751 | -118.35477 | 696 ft | 17 kts | 304° |
| 2026-04-29 23:10 | 34.19854 | -118.35532 | 698 ft | 16 kts | 346° |
| 2026-04-29 23:10 | 34.19957 | -118.35563 | 698 ft | 15 kts | 348° |
| 2026-04-29 23:10 | 34.20077 | -118.35593 | 703 ft | 23 kts | 347° |
| 2026-04-29 23:11 | 34.20227 | -118.35634 | 714 ft | 21 kts | 347° |
| 2026-04-29 23:11 | 34.20361 | -118.35671 | 719 ft | 19 kts | 347° |
| 2026-04-29 23:11 | 34.20474 | -118.35702 | 723 ft | 15 kts | 346° |
| 2026-04-29 23:11 | 34.20566 | -118.35727 | 728 ft | 13 kts | 347° |
| 2026-04-29 23:12 | 34.20659 | -118.35752 | 732 ft | 13 kts | 347° |
| 2026-04-29 23:12 | 34.20748 | -118.35777 | 739 ft | 14 kts | 347° |
| 2026-04-29 23:12 | 34.20847 | -118.35804 | 746 ft | 13 kts | 347° |
| 2026-04-29 23:12 | 34.20944 | -118.35831 | 753 ft | 21 kts | 347° |
| 2026-04-29 23:13 | 34.21079 | -118.35868 | 764 ft | 11 kts | 346° |
| 2026-04-29 23:13 | 34.21135 | -118.35887 | 768 ft | 5 kts | 338° |
| 2026-04-29 23:13 | 34.21150 | -118.35900 | 770 ft | 0 kts | 321° |
| 2026-04-29 23:14 | 34.21169 | -118.35924 | 772 ft | 13 kts | 313° |
| 2026-04-29 23:14 | 34.21200 | -118.36029 | 774 ft | 6 kts | 212° |
| 2026-04-29 23:14 | 34.21120 | -118.36016 | 771 ft | 25 kts | 167° |
| 2026-04-29 23:14 | 34.20691 | -118.35897 | 738 ft | 102 kts | 166° |
| 2026-04-29 23:15 | 34.19812 | -118.35646 | 880 ft | 144 kts | 168° |
| 2026-04-29 23:15 | 34.18822 | -118.35467 | 1503 ft | 146 kts | 188° |
| 2026-04-29 23:15 | 34.17965 | -118.36096 | 2117 ft | 151 kts | 235° |
| 2026-04-29 23:15 | 34.17560 | -118.37278 | 2689 ft | 158 kts | 246° |
| 2026-04-29 23:16 | 34.16826 | -118.38387 | 3049 ft | 182 kts | 224° |
| 2026-04-29 23:16 | 34.15810 | -118.39465 | 3401 ft | 207 kts | 221° |
| 2026-04-29 23:16 | 34.14636 | -118.40646 | 3870 ft | 232 kts | 220° |
| 2026-04-29 23:16 | 34.13389 | -118.42036 | 4363 ft | 257 kts | 232° |
| 2026-04-29 23:17 | 34.12685 | -118.44079 | 5013 ft | 274 kts | 264° |
| 2026-04-29 23:17 | 34.12976 | -118.46360 | 5887 ft | 282 kts | 297° |
| 2026-04-29 23:17 | 34.14246 | -118.48136 | 6825 ft | 284 kts | 327° |
| 2026-04-29 23:17 | 34.15961 | -118.49395 | 7814 ft | 286 kts | 330° |
| 2026-04-29 23:18 | 34.17684 | -118.50606 | 8815 ft | 288 kts | 329° |
| 2026-04-29 23:18 | 34.19424 | -118.51820 | 9814 ft | 290 kts | 328° |
| 2026-04-29 23:18 | 34.21201 | -118.53061 | 10435 ft | 306 kts | 327° |
| 2026-04-29 23:18 | 34.23111 | -118.54406 | 10766 ft | 329 kts | 327° |
| 2026-04-29 23:19 | 34.25159 | -118.55855 | 11010 ft | 353 kts | 327° |
| 2026-04-29 23:19 | 34.27336 | -118.57399 | 11373 ft | 370 kts | 327° |
| 2026-04-29 23:19 | 34.29576 | -118.58987 | 12050 ft | 376 kts | 327° |
| 2026-04-29 23:19 | 34.31843 | -118.60596 | 12804 ft | 380 kts | 327° |
| 2026-04-29 23:20 | 34.34138 | -118.62224 | 13584 ft | 384 kts | 327° |
| 2026-04-29 23:20 | 34.36451 | -118.63866 | 14294 ft | 387 kts | 327° |
| 2026-04-29 23:20 | 34.38877 | -118.65346 | 14961 ft | 393 kts | 333° |
| 2026-04-29 23:20 | 34.41381 | -118.66711 | 15650 ft | 396 kts | 332° |
| 2026-04-29 23:21 | 34.43834 | -118.68228 | 16309 ft | 397 kts | 326° |
| 2026-04-29 23:21 | 34.46228 | -118.69921 | 16961 ft | 400 kts | 326° |
| 2026-04-29 23:21 | 34.48636 | -118.71628 | 17612 ft | 403 kts | 326° |
| 2026-04-29 23:21 | 34.51065 | -118.73350 | 18250 ft | 406 kts | 326° |
| 2026-04-29 23:22 | 34.53511 | -118.75079 | 18806 ft | 408 kts | 325° |
| 2026-04-29 23:22 | 34.55974 | -118.76822 | 19366 ft | 411 kts | 325° |
| 2026-04-29 23:22 | 34.58449 | -118.78575 | 19889 ft | 413 kts | 326° |
| 2026-04-29 23:22 | 34.60935 | -118.80335 | 20363 ft | 415 kts | 325° |
| 2026-04-29 23:23 | 34.63437 | -118.82106 | 20874 ft | 417 kts | 325° |
| 2026-04-29 23:23 | 34.65949 | -118.83886 | 21364 ft | 419 kts | 325° |
| 2026-04-29 23:23 | 34.68471 | -118.85676 | 21795 ft | 421 kts | 325° |
| 2026-04-29 23:23 | 34.71011 | -118.87477 | 22229 ft | 424 kts | 325° |
| 2026-04-29 23:24 | 34.73562 | -118.89288 | 22701 ft | 426 kts | 324° |
| 2026-04-29 23:24 | 34.76126 | -118.91111 | 23132 ft | 428 kts | 324° |
| 2026-04-29 23:24 | 34.78698 | -118.92948 | 23580 ft | 430 kts | 325° |
| 2026-04-29 23:24 | 34.81285 | -118.94796 | 23929 ft | 432 kts | 324° |
| 2026-04-29 23:25 | 34.83889 | -118.96650 | 24239 ft | 435 kts | 325° |
| 2026-04-29 23:25 | 34.86509 | -118.98514 | 24589 ft | 438 kts | 325° |
| 2026-04-29 23:25 | 34.89146 | -119.00397 | 24909 ft | 441 kts | 325° |
| 2026-04-29 23:25 | 34.91834 | -119.02321 | 25268 ft | 443 kts | 325° |
| 2026-04-29 23:26 | 34.94500 | -119.04231 | 25587 ft | 446 kts | 325° |
| 2026-04-29 23:26 | 34.97183 | -119.06153 | 25893 ft | 449 kts | 325° |
| 2026-04-29 23:26 | 34.99882 | -119.08085 | 26204 ft | 451 kts | 325° |
| 2026-04-29 23:26 | 35.02594 | -119.10026 | 26509 ft | 453 kts | 325° |
| 2026-04-29 23:27 | 35.05319 | -119.11979 | 26803 ft | 456 kts | 325° |
| 2026-04-29 23:27 | 35.08059 | -119.13947 | 27094 ft | 458 kts | 325° |
| 2026-04-29 23:27 | 35.10806 | -119.15923 | 27487 ft | 457 kts | 325° |
| 2026-04-29 23:27 | 35.13544 | -119.17890 | 27935 ft | 457 kts | 325° |
| 2026-04-29 23:28 | 35.16280 | -119.19856 | 28377 ft | 456 kts | 325° |
| 2026-04-29 23:28 | 35.19012 | -119.21821 | 28820 ft | 455 kts | 325° |
| 2026-04-29 23:28 | 35.20824 | -119.23126 | 29113 ft | 455 kts | 325° |
| 2026-04-29 23:28 | 35.23540 | -119.25087 | 29559 ft | 454 kts | 325° |
| 2026-04-29 23:29 | 35.26260 | -119.27055 | 30010 ft | 454 kts | 325° |
| 2026-04-29 23:29 | 35.28974 | -119.29017 | 30407 ft | 453 kts | 324° |
| 2026-04-29 23:29 | 35.31687 | -119.30979 | 30771 ft | 453 kts | 324° |
| 2026-04-29 23:29 | 35.34399 | -119.32942 | 31145 ft | 452 kts | 324° |
| 2026-04-29 23:30 | 35.37109 | -119.34903 | 31518 ft | 452 kts | 324° |
| 2026-04-29 23:30 | 35.39818 | -119.36864 | 31896 ft | 452 kts | 324° |
| 2026-04-29 23:30 | 35.42524 | -119.38826 | 32276 ft | 452 kts | 324° |
| 2026-04-29 23:30 | 35.45230 | -119.40793 | 32658 ft | 452 kts | 324° |
| 2026-04-29 23:31 | 35.47932 | -119.42760 | 33048 ft | 451 kts | 324° |
| 2026-04-29 23:31 | 35.50631 | -119.44726 | 33449 ft | 451 kts | 324° |
| 2026-04-29 23:31 | 35.53331 | -119.46687 | 33846 ft | 451 kts | 324° |
| 2026-04-29 23:31 | 35.56010 | -119.48779 | 34002 ft | 449 kts | 319° |
| 2026-04-29 23:32 | 35.60858 | -119.53662 | 34029 ft | 452 kts | 316° |
| 2026-04-29 23:32 | 35.65704 | -119.58614 | 34029 ft | 453 kts | 316° |
| 2026-04-29 23:33 | 35.70553 | -119.63573 | 34037 ft | 453 kts | 316° |
| 2026-04-29 23:33 | 35.75395 | -119.68541 | 34039 ft | 453 kts | 317° |
| 2026-04-29 23:34 | 35.80242 | -119.73513 | 34036 ft | 453 kts | 317° |
| 2026-04-29 23:34 | 35.85090 | -119.78486 | 34043 ft | 454 kts | 317° |
| 2026-04-29 23:35 | 35.89936 | -119.83477 | 34049 ft | 453 kts | 317° |
| 2026-04-29 23:35 | 35.94641 | -119.88632 | 34043 ft | 452 kts | 314° |
| 2026-04-29 23:36 | 35.99129 | -119.94055 | 34054 ft | 451 kts | 313° |
| 2026-04-29 23:36 | 36.03589 | -119.99508 | 34047 ft | 451 kts | 314° |
| 2026-04-29 23:37 | 36.08098 | -120.04897 | 34052 ft | 451 kts | 315° |
| 2026-04-29 23:37 | 36.12629 | -120.10257 | 34045 ft | 450 kts | 315° |
| 2026-04-29 23:38 | 36.17146 | -120.15622 | 34045 ft | 450 kts | 315° |
| 2026-04-29 23:38 | 36.21682 | -120.21038 | 34037 ft | 450 kts | 315° |
| 2026-04-29 23:39 | 36.26186 | -120.26422 | 34044 ft | 450 kts | 315° |
| 2026-04-29 23:39 | 36.30683 | -120.31818 | 34039 ft | 450 kts | 315° |
| 2026-04-29 23:40 | 36.35176 | -120.37219 | 34049 ft | 450 kts | 315° |
| 2026-04-29 23:40 | 36.39667 | -120.42638 | 34040 ft | 450 kts | 315° |
| 2026-04-29 23:41 | 36.44167 | -120.48058 | 34045 ft | 451 kts | 316° |
| 2026-04-29 23:41 | 36.48670 | -120.53482 | 34049 ft | 451 kts | 316° |
| 2026-04-29 23:42 | 36.53170 | -120.58904 | 33934 ft | 451 kts | 316° |
| 2026-04-29 23:42 | 36.55442 | -120.61579 | 33660 ft | 450 kts | 317° |
| 2026-04-29 23:42 | 36.57761 | -120.64198 | 32780 ft | 452 kts | 319° |
| 2026-04-29 23:43 | 36.60118 | -120.66781 | 32198 ft | 447 kts | 319° |
| 2026-04-29 23:43 | 36.62440 | -120.69291 | 31687 ft | 439 kts | 320° |
| 2026-04-29 23:43 | 36.64729 | -120.71770 | 31115 ft | 433 kts | 320° |
| 2026-04-29 23:43 | 36.66977 | -120.74226 | 30552 ft | 427 kts | 320° |
| 2026-04-29 23:44 | 36.69192 | -120.76668 | 29791 ft | 422 kts | 319° |
| 2026-04-29 23:44 | 36.71362 | -120.79078 | 28814 ft | 415 kts | 319° |
| 2026-04-29 23:44 | 36.73497 | -120.81457 | 27844 ft | 409 kts | 320° |
| 2026-04-29 23:44 | 36.75597 | -120.83811 | 26933 ft | 402 kts | 320° |
| 2026-04-29 23:45 | 36.77653 | -120.86118 | 26501 ft | 396 kts | 320° |
| 2026-04-29 23:45 | 36.79701 | -120.88403 | 26064 ft | 393 kts | 320° |
| 2026-04-29 23:45 | 36.81744 | -120.90662 | 25452 ft | 391 kts | 320° |
| 2026-04-29 23:45 | 36.83776 | -120.92904 | 24846 ft | 389 kts | 320° |
| 2026-04-29 23:46 | 36.85790 | -120.95132 | 24363 ft | 384 kts | 320° |
| 2026-04-29 23:46 | 36.87792 | -120.97347 | 23812 ft | 382 kts | 321° |
| 2026-04-29 23:46 | 36.89767 | -120.99534 | 23323 ft | 378 kts | 321° |
| 2026-04-29 23:46 | 36.91726 | -121.01709 | 22758 ft | 376 kts | 320° |
| 2026-04-29 23:47 | 36.93673 | -121.03873 | 22220 ft | 374 kts | 320° |
| 2026-04-29 23:47 | 36.95606 | -121.06030 | 21684 ft | 372 kts | 320° |
| 2026-04-29 23:47 | 36.97558 | -121.08208 | 21143 ft | 370 kts | 320° |
| 2026-04-29 23:47 | 36.99473 | -121.10345 | 20622 ft | 369 kts | 320° |
| 2026-04-29 23:48 | 37.01383 | -121.12477 | 20101 ft | 367 kts | 320° |
| 2026-04-29 23:48 | 37.03284 | -121.14600 | 19587 ft | 366 kts | 320° |
| 2026-04-29 23:48 | 37.05181 | -121.16722 | 19076 ft | 365 kts | 320° |
| 2026-04-29 23:48 | 37.07065 | -121.18836 | 18557 ft | 364 kts | 320° |
| 2026-04-29 23:49 | 37.08950 | -121.20947 | 17974 ft | 363 kts | 320° |
| 2026-04-29 23:49 | 37.10826 | -121.23044 | 17373 ft | 358 kts | 320° |
| 2026-04-29 23:49 | 37.12675 | -121.25110 | 16581 ft | 355 kts | 320° |
| 2026-04-29 23:49 | 37.14500 | -121.27166 | 15824 ft | 351 kts | 319° |
| 2026-04-29 23:50 | 37.16284 | -121.29223 | 15097 ft | 347 kts | 319° |
| 2026-04-29 23:50 | 37.18043 | -121.31275 | 14374 ft | 343 kts | 318° |
| 2026-04-29 23:50 | 37.21487 | -121.35311 | 13121 ft | 334 kts | 318° |
| 2026-04-29 23:51 | 37.23183 | -121.37293 | 12602 ft | 332 kts | 318° |
| 2026-04-29 23:51 | 37.24867 | -121.39254 | 12090 ft | 330 kts | 318° |
| 2026-04-29 23:51 | 37.26547 | -121.41210 | 11568 ft | 329 kts | 318° |
| 2026-04-29 23:51 | 37.28217 | -121.43159 | 11055 ft | 327 kts | 318° |
| 2026-04-29 23:52 | 37.29883 | -121.45102 | 10603 ft | 324 kts | 318° |
| 2026-04-29 23:52 | 37.31501 | -121.46997 | 10464 ft | 311 kts | 318° |
| 2026-04-29 23:52 | 37.33049 | -121.48809 | 10341 ft | 299 kts | 319° |
| 2026-04-29 23:52 | 37.34538 | -121.50555 | 10225 ft | 287 kts | 319° |
| 2026-04-29 23:53 | 37.35972 | -121.52232 | 10084 ft | 277 kts | 319° |
| 2026-04-29 23:53 | 37.37370 | -121.53863 | 9888 ft | 271 kts | 319° |
| 2026-04-29 23:53 | 37.38759 | -121.55474 | 9481 ft | 276 kts | 319° |
| 2026-04-29 23:53 | 37.40180 | -121.57097 | 9160 ft | 273 kts | 319° |
| 2026-04-29 23:54 | 37.41585 | -121.58695 | 8794 ft | 272 kts | 319° |
| 2026-04-29 23:54 | 37.42989 | -121.60294 | 8416 ft | 272 kts | 319° |
| 2026-04-29 23:54 | 37.44323 | -121.61998 | 7868 ft | 279 kts | 309° |
| 2026-04-29 23:54 | 37.45482 | -121.64009 | 7318 ft | 285 kts | 306° |
| 2026-04-29 23:55 | 37.46620 | -121.66007 | 7122 ft | 275 kts | 306° |
| 2026-04-29 23:55 | 37.47711 | -121.67926 | 6994 ft | 263 kts | 306° |
| 2026-04-29 23:55 | 37.48756 | -121.69759 | 6857 ft | 253 kts | 306° |
| 2026-04-29 23:55 | 37.49778 | -121.71556 | 6687 ft | 244 kts | 306° |
| 2026-04-29 23:56 | 37.50745 | -121.73261 | 6535 ft | 235 kts | 306° |
| 2026-04-29 23:56 | 37.51679 | -121.74904 | 6377 ft | 227 kts | 306° |
| 2026-04-29 23:56 | 37.52583 | -121.76514 | 6227 ft | 223 kts | 303° |
| 2026-04-29 23:56 | 37.53208 | -121.78290 | 6076 ft | 223 kts | 285° |
| 2026-04-29 23:57 | 37.53468 | -121.80210 | 5925 ft | 222 kts | 278° |
| 2026-04-29 23:57 | 37.53689 | -121.82127 | 5769 ft | 221 kts | 278° |
| 2026-04-29 23:57 | 37.53913 | -121.84036 | 5621 ft | 220 kts | 278° |
| 2026-04-29 23:57 | 37.54138 | -121.85938 | 5469 ft | 219 kts | 278° |
| 2026-04-29 23:58 | 37.54361 | -121.87833 | 5316 ft | 218 kts | 278° |
| 2026-04-29 23:58 | 37.54583 | -121.89720 | 5173 ft | 217 kts | 278° |
| 2026-04-29 23:58 | 37.54803 | -121.91597 | 5018 ft | 216 kts | 278° |
| 2026-04-29 23:58 | 37.55021 | -121.93467 | 4872 ft | 215 kts | 278° |
| 2026-04-29 23:59 | 37.55237 | -121.95330 | 4719 ft | 214 kts | 278° |
| 2026-04-29 23:59 | 37.55453 | -121.97183 | 4571 ft | 213 kts | 278° |
| 2026-04-29 23:59 | 37.55712 | -121.99017 | 4422 ft | 212 kts | 287° |
| 2026-04-29 23:59 | 37.56350 | -122.00679 | 4169 ft | 211 kts | 305° |
| 2026-04-30 00:00 | 37.57245 | -122.02137 | 3923 ft | 210 kts | 310° |
| 2026-04-30 00:00 | 37.58178 | -122.03537 | 3654 ft | 207 kts | 310° |
| 2026-04-30 00:00 | 37.59103 | -122.04914 | 3402 ft | 203 kts | 310° |
| 2026-04-30 00:00 | 37.60001 | -122.06254 | 3098 ft | 197 kts | 310° |
| 2026-04-30 00:01 | 37.60870 | -122.07549 | 2840 ft | 190 kts | 309° |
| 2026-04-30 00:01 | 37.61707 | -122.08799 | 2598 ft | 184 kts | 309° |
| 2026-04-30 00:01 | 37.62519 | -122.10011 | 2358 ft | 178 kts | 309° |
| 2026-04-30 00:01 | 37.63297 | -122.11171 | 2127 ft | 167 kts | 308° |
| 2026-04-30 00:02 | 37.63789 | -122.11906 | 1976 ft | 157 kts | 308° |
| 2026-04-30 00:02 | 37.64457 | -122.12903 | 1784 ft | 139 kts | 309° |
| 2026-04-30 00:02 | 37.65055 | -122.13798 | 1598 ft | 129 kts | 307° |
| 2026-04-30 00:02 | 37.65625 | -122.14651 | 1427 ft | 125 kts | 306° |
| 2026-04-30 00:03 | 37.66180 | -122.15481 | 1266 ft | 122 kts | 307° |
| 2026-04-30 00:03 | 37.66721 | -122.16291 | 1100 ft | 121 kts | 307° |
| 2026-04-30 00:03 | 37.67262 | -122.17100 | 929 ft | 121 kts | 308° |
| 2026-04-30 00:03 | 37.67811 | -122.17921 | 788 ft | 123 kts | 307° |
| 2026-04-30 00:04 | 37.68365 | -122.18749 | 593 ft | 123 kts | 307° |
| 2026-04-30 00:04 | 37.68903 | -122.19558 | 454 ft | 119 kts | 304° |
| 2026-04-30 00:04 | 37.69433 | -122.20354 | 311 ft | 118 kts | 306° |
| 2026-04-30 00:04 | 37.69971 | -122.21144 | 121 ft | 118 kts | 306° |
| 2026-04-30 00:05 | 37.70489 | -122.21931 | 12 ft | 107 kts | 303° |
| 2026-04-30 00:05 | 37.70875 | -122.22518 | 7 ft | 63 kts | 310° |
| 2026-04-30 00:05 | 37.71091 | -122.22841 | 10 ft | 41 kts | 310° |
| 2026-04-30 00:05 | 37.71282 | -122.23071 | 10 ft | 33 kts | 328° |
| 2026-04-30 00:06 | 37.71454 | -122.23149 | 9 ft | 22 kts | 360° |
| 2026-04-30 00:06 | 37.71465 | -122.23020 | 9 ft | 19 kts | 129° |
| 2026-04-30 00:06 | 37.71377 | -122.22892 | 9 ft | 20 kts | 130° |
| 2026-04-30 00:06 | 37.71287 | -122.22756 | 9 ft | 21 kts | 130° |
| 2026-04-30 00:07 | 37.71193 | -122.22616 | 9 ft | 21 kts | 130° |
| 2026-04-30 00:07 | 37.71107 | -122.22479 | 9 ft | 18 kts | 109° |
| 2026-04-30 00:07 | 37.71171 | -122.22362 | 9 ft | 17 kts | 39° |
| 2026-04-30 00:07 | 37.71265 | -122.22262 | 10 ft | 18 kts | 40° |
| 2026-04-30 00:08 | 37.71258 | -122.22135 | 9 ft | 17 kts | 132° |
| 2026-04-30 00:08 | 37.71181 | -122.22022 | 9 ft | 17 kts | 130° |
| 2026-04-30 00:08 | 37.71100 | -122.21902 | 9 ft | 18 kts | 130° |
| 2026-04-30 00:08 | 37.71016 | -122.21790 | 9 ft | 14 kts | 116° |
| 2026-04-30 00:09 | 37.71028 | -122.21727 | 10 ft | 4 kts | 65° |
| 2026-04-30 00:09 | 37.71038 | -122.21699 | 9 ft | 0 kts | 66° |
| 2026-04-30 00:09 | 37.71041 | -122.21692 | 10 ft | 2 kts | 66° |
| 2026-04-30 00:09 | 37.71041 | -122.21690 | 10 ft | 0 kts | 66° |